Forside
METAR-TAF:

METAR-TAF

Lufthavne :

Gibraltar Lufthavn

Gibraltar, Gibraltar

Breddekreds: 36-09N, længdekreds: 005-21W, højde: 5 m

Aktuelle vejr

Denne rapport blev lavet for 27 minutter siden, kl. 11:50 UTC
Vind 11 kt fra syd
Temperatur 22°C
Fugtighed 69%
Tryk 1016 hPa
Sigt 10 km eller mere
Nogle få skyer i en højde af 3000 ft

METAR: LXGB 171150Z 19011KT 9999 FEW030 22/16 Q1016 NOSIG

Tid: 14:17 (12:17 UTC)

Vejrudsigter

Denne rapport blev lavet for 11 minutter siden, kl. 12:06 UTC
Foreløbig gælder fra 17 på 12 UTC til 17 på 21 UTC
Vind 8 kt fra sydvest
Sigt 10 km eller mere
Nogle få skyer i en højde af 3000 ft
Sandsynlighed 40% :
Midlertidig
fra 17 på 12 UTC til 17 på 19 UTC
Vind 15 kt fra syd med vindstød på up til 25 kt
Sandsynlighed 30% :
Midlertidig
fra 17 på 20 UTC til 17 på 21 UTC
Spredte skyer i en højde af 2400 ft

TAF: LXGB 171206Z 1712/1721 22008KT 9999 FEW030 PROB40 TEMPO 1712/1719 19015G25KT 520002 PROB30 TEMPO 1720/1721 SCT024

Vejrobservationer og prognoser fra mere end 4000 lufthavne (METAR og TAF).

De gule og røde prikker repræsenterer de meteorologiske stationer.

Flyt musen over at se navnet på stationen.

Så klik over at se vejr observationer og prognoser.

At skifte det kort: Klik på de grønne knapper med et sort kors for at zoome ind; på den grønne knap med en bindestreg for at zoome ud; eller på de grønne pile for tilstødende kort.


METAR-TAF: